ウラジオストク の空港の天気 - METARとTAF

ウラジオストク空港 ( UHWW / VVO ) - ロシア ウラジオストク
飛行場実況気象(Metar)
観測時間01/17 16:00 +10 (01/17 06:00 UTC)
風向・風速南西 3m/s
視程10km以上
天気現象
なし
気温-2℃
湿度50%
気圧1028hPa
METARUHWW 170600Z 22003MPS 9999 NSC M02/M11 Q1028 R25L/0///70 NOSIG RMK QFE770
過去の天気等 Google飛行場航空写真 Wunderground天気予報

過去48時間のMETAR

飛行場予報(TAF)
発表時間: 1/17 14:57 +10 (1/17 04:57 UTC)
予報対象時間: 17日16時 +10 ~ 18日16時 +10
風向・風速北北西 3m/s
視程10km以上
全天の4割程度の雲 雲底高度 910m
17日18時 +10 ~ 17日20時 +10 に徐々に
視程2,100m
天気現象もや
全天の4割程度の雲 雲底高度 3,050m
TAF UHWW 170457Z 1706/1806 34003MPS 9999 SCT030
BECMG 1708/1710 2100 BR SCT100